sensor_id;sensor_type;location;lat;lon;timestamp;pressure;altitude;pressure_sealevel;temperature;humidity
26487;BME280;14425;56.136;40.360;2023-06-10T00:01:12;99923.16;;;11.49;66.18
26487;BME280;14425;56.136;40.360;2023-06-10T00:03:38;99917.72;;;11.65;67.89
26487;BME280;14425;56.136;40.360;2023-06-10T00:06:04;99928.75;;;10.92;68.44
26487;BME280;14425;56.136;40.360;2023-06-10T00:08:30;99929.19;;;11.50;67.96
26487;BME280;14425;56.136;40.360;2023-06-10T00:10:56;99927.28;;;11.44;66.82
26487;BME280;14425;56.136;40.360;2023-06-10T00:13:22;99924.94;;;11.52;66.99
26487;BME280;14425;56.136;40.360;2023-06-10T00:15:48;99933.59;;;12.00;66.16
26487;BME280;14425;56.136;40.360;2023-06-10T00:18:13;99917.59;;;12.12;64.74
26487;BME280;14425;56.136;40.360;2023-06-10T00:20:39;99926.50;;;11.71;65.20
26487;BME280;14425;56.136;40.360;2023-06-10T00:23:05;99929.78;;;12.42;63.26
26487;BME280;14425;56.136;40.360;2023-06-10T00:25:34;99934.75;;;12.36;62.28
26487;BME280;14425;56.136;40.360;2023-06-10T00:27:59;99927.78;;;12.08;63.95
26487;BME280;14425;56.136;40.360;2023-06-10T00:30:25;99928.84;;;11.89;65.55
26487;BME280;14425;56.136;40.360;2023-06-10T00:32:51;99931.22;;;11.58;65.35
26487;BME280;14425;56.136;40.360;2023-06-10T00:35:17;99930.81;;;11.72;65.58
26487;BME280;14425;56.136;40.360;2023-06-10T00:37:42;99937.91;;;11.06;67.54
26487;BME280;14425;56.136;40.360;2023-06-10T00:40:08;99934.09;;;10.97;70.27
26487;BME280;14425;56.136;40.360;2023-06-10T00:42:34;99944.44;;;11.19;69.97
26487;BME280;14425;56.136;40.360;2023-06-10T00:45:00;99945.06;;;11.36;68.78
26487;BME280;14425;56.136;40.360;2023-06-10T00:47:27;99937.44;;;11.17;68.91
26487;BME280;14425;56.136;40.360;2023-06-10T00:49:53;99951.22;;;11.40;67.38
26487;BME280;14425;56.136;40.360;2023-06-10T00:52:20;99950.66;;;11.49;68.82
26487;BME280;14425;56.136;40.360;2023-06-10T00:54:47;99957.53;;;11.24;68.40
26487;BME280;14425;56.136;40.360;2023-06-10T00:57:13;99962.22;;;10.68;71.38
26487;BME280;14425;56.136;40.360;2023-06-10T00:59:40;99970.84;;;10.47;72.90
26487;BME280;14425;56.136;40.360;2023-06-10T01:02:06;99961.06;;;10.19;75.17
26487;BME280;14425;56.136;40.360;2023-06-10T01:04:32;99969.31;;;10.31;74.75
26487;BME280;14425;56.136;40.360;2023-06-10T01:12:59;99967.59;;;10.72;73.42
26487;BME280;14425;56.136;40.360;2023-06-10T01:15:29;99967.06;;;11.49;70.59
26487;BME280;14425;56.136;40.360;2023-06-10T01:18:00;99964.66;;;11.31;69.85
26487;BME280;14425;56.136;40.360;2023-06-10T01:20:28;99967.91;;;11.03;69.79
26487;BME280;14425;56.136;40.360;2023-06-10T01:22:55;99970.22;;;10.74;72.67
26487;BME280;14425;56.136;40.360;2023-06-10T01:25:22;99972.88;;;10.33;74.67
26487;BME280;14425;56.136;40.360;2023-06-10T01:30:29;99976.22;;;11.18;70.46
26487;BME280;14425;56.136;40.360;2023-06-10T01:32:58;99972.59;;;11.13;69.92
26487;BME280;14425;56.136;40.360;2023-06-10T01:35:25;99973.75;;;11.68;67.53
26487;BME280;14425;56.136;40.360;2023-06-10T01:37:54;99978.06;;;11.68;66.62
26487;BME280;14425;56.136;40.360;2023-06-10T01:40:23;99980.94;;;11.53;67.65
26487;BME280;14425;56.136;40.360;2023-06-10T01:42:51;99985.81;;;11.68;66.65
26487;BME280;14425;56.136;40.360;2023-06-10T01:45:17;99985.47;;;11.82;65.74
26487;BME280;14425;56.136;40.360;2023-06-10T01:47:43;99990.63;;;11.82;66.00
26487;BME280;14425;56.136;40.360;2023-06-10T01:50:09;99995.09;;;11.40;68.57
26487;BME280;14425;56.136;40.360;2023-06-10T01:52:34;99996.69;;;10.91;71.70
26487;BME280;14425;56.136;40.360;2023-06-10T01:55:00;99998.41;;;11.82;68.14
26487;BME280;14425;56.136;40.360;2023-06-10T01:57:25;100007.31;;;11.44;69.12
26487;BME280;14425;56.136;40.360;2023-06-10T01:59:51;99995.94;;;11.86;66.78
26487;BME280;14425;56.136;40.360;2023-06-10T02:02:16;100006.53;;;11.46;68.77
26487;BME280;14425;56.136;40.360;2023-06-10T02:04:42;100013.31;;;11.43;70.08
26487;BME280;14425;56.136;40.360;2023-06-10T02:07:07;100010.78;;;11.44;70.06
26487;BME280;14425;56.136;40.360;2023-06-10T02:09:33;100019.56;;;11.72;67.78
26487;BME280;14425;56.136;40.360;2023-06-10T02:12:02;100017.19;;;11.54;69.76
26487;BME280;14425;56.136;40.360;2023-06-10T02:14:29;100016.44;;;11.34;70.72
26487;BME280;14425;56.136;40.360;2023-06-10T02:16:55;100019.34;;;11.43;69.07
26487;BME280;14425;56.136;40.360;2023-06-10T02:19:23;100019.75;;;11.78;67.63
26487;BME280;14425;56.136;40.360;2023-06-10T02:21:50;100023.63;;;11.43;68.39
26487;BME280;14425;56.136;40.360;2023-06-10T02:24:16;100028.38;;;11.32;70.82
26487;BME280;14425;56.136;40.360;2023-06-10T02:26:41;100033.06;;;11.65;68.98
26487;BME280;14425;56.136;40.360;2023-06-10T02:29:07;100039.44;;;11.51;68.14
26487;BME280;14425;56.136;40.360;2023-06-10T02:31:33;100041.59;;;11.40;69.50
26487;BME280;14425;56.136;40.360;2023-06-10T02:34:01;100040.47;;;11.33;71.04
26487;BME280;14425;56.136;40.360;2023-06-10T02:36:27;100050.50;;;11.25;70.98
26487;BME280;14425;56.136;40.360;2023-06-10T02:38:53;100046.31;;;11.97;69.82
26487;BME280;14425;56.136;40.360;2023-06-10T02:41:18;100045.09;;;11.87;67.54
26487;BME280;14425;56.136;40.360;2023-06-10T02:43:44;100046.22;;;11.94;68.23
26487;BME280;14425;56.136;40.360;2023-06-10T02:46:10;100045.66;;;12.02;68.15
26487;BME280;14425;56.136;40.360;2023-06-10T02:48:42;100045.03;;;11.86;67.92
26487;BME280;14425;56.136;40.360;2023-06-10T02:51:10;100043.75;;;11.52;69.85
26487;BME280;14425;56.136;40.360;2023-06-10T02:53:35;100046.75;;;12.09;68.83
26487;BME280;14425;56.136;40.360;2023-06-10T02:56:01;100048.53;;;12.10;67.88
26487;BME280;14425;56.136;40.360;2023-06-10T02:58:27;100054.13;;;12.23;67.76
26487;BME280;14425;56.136;40.360;2023-06-10T03:00:52;100054.56;;;11.64;69.63
26487;BME280;14425;56.136;40.360;2023-06-10T03:03:18;100053.50;;;11.36;72.37
26487;BME280;14425;56.136;40.360;2023-06-10T03:05:43;100061.72;;;11.49;72.41
26487;BME280;14425;56.136;40.360;2023-06-10T03:08:09;100056.53;;;11.49;73.12
26487;BME280;14425;56.136;40.360;2023-06-10T03:10:35;100055.22;;;11.36;73.26
26487;BME280;14425;56.136;40.360;2023-06-10T03:13:00;100057.78;;;10.92;75.20
26487;BME280;14425;56.136;40.360;2023-06-10T03:15:26;100057.28;;;10.80;77.89
26487;BME280;14425;56.136;40.360;2023-06-10T03:17:54;100056.09;;;11.59;73.54
26487;BME280;14425;56.136;40.360;2023-06-10T03:20:20;100053.72;;;12.12;70.13
26487;BME280;14425;56.136;40.360;2023-06-10T03:22:47;100061.41;;;12.09;69.08
26487;BME280;14425;56.136;40.360;2023-06-10T03:25:12;100074.38;;;11.88;71.87
26487;BME280;14425;56.136;40.360;2023-06-10T03:27:40;100072.38;;;12.03;69.88
26487;BME280;14425;56.136;40.360;2023-06-10T03:30:06;100069.00;;;12.04;68.55
26487;BME280;14425;56.136;40.360;2023-06-10T03:32:32;100078.50;;;11.60;70.09
26487;BME280;14425;56.136;40.360;2023-06-10T03:34:58;100075.56;;;11.96;69.57
26487;BME280;14425;56.136;40.360;2023-06-10T03:37:24;100076.44;;;11.96;69.68
26487;BME280;14425;56.136;40.360;2023-06-10T03:39:50;100078.50;;;11.82;68.71
26487;BME280;14425;56.136;40.360;2023-06-10T03:42:15;100079.81;;;11.94;66.65
26487;BME280;14425;56.136;40.360;2023-06-10T03:44:41;100084.03;;;12.40;66.26
26487;BME280;14425;56.136;40.360;2023-06-10T03:47:06;100081.97;;;12.06;65.90
26487;BME280;14425;56.136;40.360;2023-06-10T03:49:32;100079.81;;;11.71;66.42
26487;BME280;14425;56.136;40.360;2023-06-10T03:51:58;100089.31;;;11.50;66.97
26487;BME280;14425;56.136;40.360;2023-06-10T03:54:24;100087.06;;;11.81;65.90
26487;BME280;14425;56.136;40.360;2023-06-10T03:56:49;100087.72;;;11.98;63.94
26487;BME280;14425;56.136;40.360;2023-06-10T03:59:15;100089.91;;;12.10;63.88
26487;BME280;14425;56.136;40.360;2023-06-10T04:01:41;100088.84;;;11.82;62.85
26487;BME280;14425;56.136;40.360;2023-06-10T04:04:07;100087.41;;;11.91;62.84
26487;BME280;14425;56.136;40.360;2023-06-10T04:06:32;100083.84;;;11.87;61.30
26487;BME280;14425;56.136;40.360;2023-06-10T04:08:58;100101.88;;;11.63;61.41
26487;BME280;14425;56.136;40.360;2023-06-10T04:11:24;100093.78;;;12.23;60.34
26487;BME280;14425;56.136;40.360;2023-06-10T04:13:50;100100.34;;;11.68;60.22
26487;BME280;14425;56.136;40.360;2023-06-10T04:16:15;100096.47;;;11.79;60.90
26487;BME280;14425;56.136;40.360;2023-06-10T04:18:41;100108.56;;;12.03;60.45
26487;BME280;14425;56.136;40.360;2023-06-10T04:21:10;100105.50;;;12.13;59.02
26487;BME280;14425;56.136;40.360;2023-06-10T04:23:35;100100.63;;;12.45;58.98
26487;BME280;14425;56.136;40.360;2023-06-10T04:26:02;100106.09;;;11.83;58.90
26487;BME280;14425;56.136;40.360;2023-06-10T04:28:28;100110.38;;;11.83;58.21
26487;BME280;14425;56.136;40.360;2023-06-10T04:30:53;100111.47;;;11.65;58.91
26487;BME280;14425;56.136;40.360;2023-06-10T04:33:19;100115.63;;;12.07;58.52
26487;BME280;14425;56.136;40.360;2023-06-10T04:35:44;100120.28;;;12.42;57.76
26487;BME280;14425;56.136;40.360;2023-06-10T04:38:13;100116.53;;;12.32;56.19
26487;BME280;14425;56.136;40.360;2023-06-10T04:40:39;100118.09;;;12.28;56.05
26487;BME280;14425;56.136;40.360;2023-06-10T04:43:04;100117.47;;;12.60;55.97
26487;BME280;14425;56.136;40.360;2023-06-10T04:45:30;100122.66;;;12.60;54.97
26487;BME280;14425;56.136;40.360;2023-06-10T04:47:56;100128.09;;;12.43;55.19
26487;BME280;14425;56.136;40.360;2023-06-10T04:50:23;100132.25;;;12.14;55.29
26487;BME280;14425;56.136;40.360;2023-06-10T04:52:49;100142.59;;;12.14;55.35
26487;BME280;14425;56.136;40.360;2023-06-10T04:55:15;100144.41;;;12.41;54.21
26487;BME280;14425;56.136;40.360;2023-06-10T04:57:41;100139.81;;;12.82;52.98
26487;BME280;14425;56.136;40.360;2023-06-10T05:00:07;100138.44;;;12.93;52.67
26487;BME280;14425;56.136;40.360;2023-06-10T05:02:34;100139.75;;;13.06;52.88
26487;BME280;14425;56.136;40.360;2023-06-10T05:04:59;100139.63;;;13.03;53.16
26487;BME280;14425;56.136;40.360;2023-06-10T05:07:25;100142.59;;;13.39;52.09
26487;BME280;14425;56.136;40.360;2023-06-10T05:09:51;100135.28;;;13.27;51.33
26487;BME280;14425;56.136;40.360;2023-06-10T05:12:16;100145.63;;;13.27;52.59
26487;BME280;14425;56.136;40.360;2023-06-10T05:14:42;100137.56;;;13.73;51.71
26487;BME280;14425;56.136;40.360;2023-06-10T05:17:07;100136.19;;;13.55;51.35
26487;BME280;14425;56.136;40.360;2023-06-10T05:19:33;100139.38;;;13.75;51.16
26487;BME280;14425;56.136;40.360;2023-06-10T05:22:01;100145.69;;;13.55;51.18
26487;BME280;14425;56.136;40.360;2023-06-10T05:24:26;100140.88;;;13.67;49.95
26487;BME280;14425;56.136;40.360;2023-06-10T05:26:52;100143.72;;;13.47;51.14
26487;BME280;14425;56.136;40.360;2023-06-10T05:29:17;100143.69;;;13.20;49.92
26487;BME280;14425;56.136;40.360;2023-06-10T05:31:43;100147.06;;;13.43;50.23
26487;BME280;14425;56.136;40.360;2023-06-10T05:34:08;100151.09;;;13.35;50.15
26487;BME280;14425;56.136;40.360;2023-06-10T05:36:34;100142.59;;;13.66;49.85
26487;BME280;14425;56.136;40.360;2023-06-10T05:38:59;100143.00;;;13.80;48.53
26487;BME280;14425;56.136;40.360;2023-06-10T05:41:25;100140.34;;;13.24;49.77
26487;BME280;14425;56.136;40.360;2023-06-10T05:43:50;100148.47;;;13.34;50.22
26487;BME280;14425;56.136;40.360;2023-06-10T05:46:16;100144.97;;;13.60;49.50
26487;BME280;14425;56.136;40.360;2023-06-10T05:48:41;100160.06;;;13.45;48.82
26487;BME280;14425;56.136;40.360;2023-06-10T05:51:07;100155.63;;;13.42;48.93
26487;BME280;14425;56.136;40.360;2023-06-10T05:53:32;100161.91;;;13.49;49.11
26487;BME280;14425;56.136;40.360;2023-06-10T05:55:58;100159.50;;;13.55;47.81
26487;BME280;14425;56.136;40.360;2023-06-10T05:58:24;100163.19;;;13.91;47.54
26487;BME280;14425;56.136;40.360;2023-06-10T06:00:50;100161.78;;;14.02;47.08
26487;BME280;14425;56.136;40.360;2023-06-10T06:03:17;100161.59;;;14.25;46.95
26487;BME280;14425;56.136;40.360;2023-06-10T06:05:43;100159.91;;;14.27;45.90
26487;BME280;14425;56.136;40.360;2023-06-10T06:08:09;100146.63;;;14.46;45.08
26487;BME280;14425;56.136;40.360;2023-06-10T06:10:35;100151.97;;;14.52;44.90
26487;BME280;14425;56.136;40.360;2023-06-10T06:13:01;100160.31;;;14.72;43.96
26487;BME280;14425;56.136;40.360;2023-06-10T06:15:27;100164.44;;;14.96;43.73
26487;BME280;14425;56.136;40.360;2023-06-10T06:17:52;100154.19;;;15.02;43.19
26487;BME280;14425;56.136;40.360;2023-06-10T06:20:22;100155.72;;;15.67;43.35
26487;BME280;14425;56.136;40.360;2023-06-10T06:22:48;100159.03;;;15.60;42.81
26487;BME280;14425;56.136;40.360;2023-06-10T06:25:14;100168.72;;;15.67;42.06
26487;BME280;14425;56.136;40.360;2023-06-10T06:27:40;100166.56;;;15.47;42.30
26487;BME280;14425;56.136;40.360;2023-06-10T06:30:06;100162.94;;;15.41;41.98
26487;BME280;14425;56.136;40.360;2023-06-10T06:32:32;100168.50;;;15.56;41.51
26487;BME280;14425;56.136;40.360;2023-06-10T06:34:57;100173.63;;;15.53;41.39
26487;BME280;14425;56.136;40.360;2023-06-10T06:37:24;100179.16;;;15.68;41.39
26487;BME280;14425;56.136;40.360;2023-06-10T06:39:51;100178.66;;;15.83;40.36
26487;BME280;14425;56.136;40.360;2023-06-10T06:42:16;100176.84;;;15.79;39.59
26487;BME280;14425;56.136;40.360;2023-06-10T06:44:42;100189.28;;;16.32;39.90
26487;BME280;14425;56.136;40.360;2023-06-10T06:47:08;100174.59;;;16.36;38.37
26487;BME280;14425;56.136;40.360;2023-06-10T06:49:33;100182.97;;;15.81;38.87
26487;BME280;14425;56.136;40.360;2023-06-10T06:51:59;100184.00;;;15.53;39.00
26487;BME280;14425;56.136;40.360;2023-06-10T06:54:25;100187.69;;;15.61;38.96
26487;BME280;14425;56.136;40.360;2023-06-10T06:56:50;100189.25;;;15.20;39.08
26487;BME280;14425;56.136;40.360;2023-06-10T06:59:16;100200.91;;;15.36;39.87
26487;BME280;14425;56.136;40.360;2023-06-10T07:01:44;100185.06;;;15.61;38.35
26487;BME280;14425;56.136;40.360;2023-06-10T07:04:10;100201.75;;;16.07;37.44
26487;BME280;14425;56.136;40.360;2023-06-10T07:06:36;100200.78;;;16.45;36.63
26487;BME280;14425;56.136;40.360;2023-06-10T07:09:01;100204.97;;;16.37;36.86
26487;BME280;14425;56.136;40.360;2023-06-10T07:11:27;100207.13;;;17.01;36.72
26487;BME280;14425;56.136;40.360;2023-06-10T07:13:52;100206.94;;;17.95;37.40
26487;BME280;14425;56.136;40.360;2023-06-10T07:16:18;100202.59;;;16.48;37.18
26487;BME280;14425;56.136;40.360;2023-06-10T07:18:46;100212.31;;;16.56;36.54
26487;BME280;14425;56.136;40.360;2023-06-10T07:21:11;100207.50;;;16.76;36.03
26487;BME280;14425;56.136;40.360;2023-06-10T07:23:37;100204.38;;;17.45;35.06
26487;BME280;14425;56.136;40.360;2023-06-10T07:26:02;100204.88;;;17.76;34.97
26487;BME280;14425;56.136;40.360;2023-06-10T07:28:28;100211.94;;;17.83;34.16
26487;BME280;14425;56.136;40.360;2023-06-10T07:30:53;100202.66;;;17.44;35.10
26487;BME280;14425;56.136;40.360;2023-06-10T07:33:19;100203.41;;;17.90;35.01
26487;BME280;14425;56.136;40.360;2023-06-10T07:35:44;100205.97;;;17.88;34.90
26487;BME280;14425;56.136;40.360;2023-06-10T07:38:10;100205.38;;;17.53;35.76
26487;BME280;14425;56.136;40.360;2023-06-10T07:40:35;100205.88;;;17.29;36.50
26487;BME280;14425;56.136;40.360;2023-06-10T07:43:01;100211.53;;;17.55;36.65
26487;BME280;14425;56.136;40.360;2023-06-10T07:45:27;100210.66;;;17.04;36.19
26487;BME280;14425;56.136;40.360;2023-06-10T07:47:52;100217.44;;;17.43;35.83
26487;BME280;14425;56.136;40.360;2023-06-10T07:50:18;100217.94;;;17.77;36.06
26487;BME280;14425;56.136;40.360;2023-06-10T07:52:43;100222.06;;;18.19;34.88
26487;BME280;14425;56.136;40.360;2023-06-10T07:55:09;100227.34;;;18.93;34.17
26487;BME280;14425;56.136;40.360;2023-06-10T07:57:34;100213.44;;;18.98;34.33
26487;BME280;14425;56.136;40.360;2023-06-10T08:00:03;100210.13;;;19.16;33.84
26487;BME280;14425;56.136;40.360;2023-06-10T08:02:31;100223.00;;;18.95;34.05
26487;BME280;14425;56.136;40.360;2023-06-10T08:04:56;100221.72;;;17.93;34.01
26487;BME280;14425;56.136;40.360;2023-06-10T08:07:22;100244.19;;;18.47;34.78
26487;BME280;14425;56.136;40.360;2023-06-10T08:09:48;100226.50;;;18.97;34.47
26487;BME280;14425;56.136;40.360;2023-06-10T08:12:13;100234.38;;;18.31;34.78
26487;BME280;14425;56.136;40.360;2023-06-10T08:14:39;100239.66;;;18.34;35.54
26487;BME280;14425;56.136;40.360;2023-06-10T08:17:05;100235.66;;;18.62;34.82
26487;BME280;14425;56.136;40.360;2023-06-10T08:19:32;100239.22;;;18.69;33.26
26487;BME280;14425;56.136;40.360;2023-06-10T08:21:57;100229.41;;;19.25;33.56
26487;BME280;14425;56.136;40.360;2023-06-10T08:24:23;100240.28;;;18.18;33.55
26487;BME280;14425;56.136;40.360;2023-06-10T08:26:48;100235.84;;;18.09;34.54
26487;BME280;14425;56.136;40.360;2023-06-10T08:29:14;100245.94;;;18.49;34.73
26487;BME280;14425;56.136;40.360;2023-06-10T08:31:44;100240.44;;;19.92;33.03
26487;BME280;14425;56.136;40.360;2023-06-10T08:34:09;100227.91;;;19.54;32.46
26487;BME280;14425;56.136;40.360;2023-06-10T08:36:35;100246.13;;;18.64;33.79
26487;BME280;14425;56.136;40.360;2023-06-10T08:39:01;100251.47;;;18.73;33.27
26487;BME280;14425;56.136;40.360;2023-06-10T08:41:28;100240.19;;;19.63;32.26
26487;BME280;14425;56.136;40.360;2023-06-10T08:44:21;100241.84;;;19.55;32.19
26487;BME280;14425;56.136;40.360;2023-06-10T08:46:47;100249.06;;;18.89;33.56
26487;BME280;14425;56.136;40.360;2023-06-10T08:49:18;100248.63;;;19.30;33.97
26487;BME280;14425;56.136;40.360;2023-06-10T08:52:07;100232.44;;;19.77;32.49
26487;BME280;14425;56.136;40.360;2023-06-10T08:54:36;100229.50;;;19.37;32.50
26487;BME280;14425;56.136;40.360;2023-06-10T08:57:05;100237.34;;;19.38;33.25
26487;BME280;14425;56.136;40.360;2023-06-10T08:59:31;100242.94;;;18.87;33.30
26487;BME280;14425;56.136;40.360;2023-06-10T09:01:57;100241.97;;;19.67;33.25
26487;BME280;14425;56.136;40.360;2023-06-10T09:04:26;100259.06;;;18.53;33.92
26487;BME280;14425;56.136;40.360;2023-06-10T09:06:53;100273.16;;;18.68;34.89
26487;BME280;14425;56.136;40.360;2023-06-10T09:09:19;100262.59;;;18.58;34.32
26487;BME280;14425;56.136;40.360;2023-06-10T09:11:45;100263.97;;;18.96;33.36
26487;BME280;14425;56.136;40.360;2023-06-10T09:14:11;100255.13;;;19.77;31.93
26487;BME280;14425;56.136;40.360;2023-06-10T09:16:38;100248.88;;;21.25;31.48
26487;BME280;14425;56.136;40.360;2023-06-10T09:19:04;100259.03;;;20.37;31.31
26487;BME280;14425;56.136;40.360;2023-06-10T09:21:36;100268.00;;;18.72;32.81
26487;BME280;14425;56.136;40.360;2023-06-10T09:24:02;100266.34;;;17.58;35.17
26487;BME280;14425;56.136;40.360;2023-06-10T09:26:30;100274.94;;;17.54;35.03
26487;BME280;14425;56.136;40.360;2023-06-10T09:29:06;100261.56;;;19.19;33.37
26487;BME280;14425;56.136;40.360;2023-06-10T09:31:37;100260.56;;;17.79;33.91
26487;BME280;14425;56.136;40.360;2023-06-10T09:34:07;100271.72;;;17.69;33.76
26487;BME280;14425;56.136;40.360;2023-06-10T09:36:36;100276.66;;;17.05;33.86
26487;BME280;14425;56.136;40.360;2023-06-10T09:39:02;100274.97;;;18.72;33.35
26487;BME280;14425;56.136;40.360;2023-06-10T09:41:35;100269.63;;;19.41;31.47
26487;BME280;14425;56.136;40.360;2023-06-10T09:44:01;100258.16;;;20.43;30.53
26487;BME280;14425;56.136;40.360;2023-06-10T09:46:31;100257.78;;;19.78;31.94
26487;BME280;14425;56.136;40.360;2023-06-10T09:49:00;100268.75;;;18.62;33.35
26487;BME280;14425;56.136;40.360;2023-06-10T09:51:26;100273.56;;;16.81;36.87
26487;BME280;14425;56.136;40.360;2023-06-10T09:53:51;100277.03;;;16.80;37.20
26487;BME280;14425;56.136;40.360;2023-06-10T09:56:18;100274.00;;;18.01;36.10
26487;BME280;14425;56.136;40.360;2023-06-10T09:58:44;100286.41;;;17.13;35.47
26487;BME280;14425;56.136;40.360;2023-06-10T10:01:13;100279.31;;;18.70;33.66
26487;BME280;14425;56.136;40.360;2023-06-10T10:03:44;100265.13;;;20.35;32.89
26487;BME280;14425;56.136;40.360;2023-06-10T10:06:11;100260.00;;;20.59;30.78
26487;BME280;14425;56.136;40.360;2023-06-10T10:08:37;100260.19;;;21.21;30.60
26487;BME280;14425;56.136;40.360;2023-06-10T10:11:03;100264.28;;;19.28;32.80
26487;BME280;14425;56.136;40.360;2023-06-10T10:13:29;100279.25;;;18.65;34.14
26487;BME280;14425;56.136;40.360;2023-06-10T10:16:00;100275.22;;;17.19;36.42
26487;BME280;14425;56.136;40.360;2023-06-10T10:18:29;100275.00;;;17.07;36.50
26487;BME280;14425;56.136;40.360;2023-06-10T10:20:57;100281.69;;;18.53;34.75
26487;BME280;14425;56.136;40.360;2023-06-10T10:23:31;100272.75;;;19.06;32.90
26487;BME280;14425;56.136;40.360;2023-06-10T10:26:00;100262.56;;;19.32;33.15
26487;BME280;14425;56.136;40.360;2023-06-10T10:28:35;100266.25;;;19.55;33.56
26487;BME280;14425;56.136;40.360;2023-06-10T10:31:08;100262.22;;;19.91;32.56
26487;BME280;14425;56.136;40.360;2023-06-10T10:33:51;100252.28;;;19.52;32.15
26487;BME280;14425;56.136;40.360;2023-06-10T10:36:20;100258.91;;;20.20;31.46
26487;BME280;14425;56.136;40.360;2023-06-10T10:38:47;100258.44;;;21.25;31.52
26487;BME280;14425;56.136;40.360;2023-06-10T10:41:13;100266.03;;;20.43;32.07
26487;BME280;14425;56.136;40.360;2023-06-10T10:43:40;100268.91;;;21.01;30.25
26487;BME280;14425;56.136;40.360;2023-06-10T10:46:12;100257.66;;;21.52;30.08
26487;BME280;14425;56.136;40.360;2023-06-10T10:48:38;100271.06;;;20.12;31.21
26487;BME280;14425;56.136;40.360;2023-06-10T10:51:06;100281.44;;;19.01;32.66
26487;BME280;14425;56.136;40.360;2023-06-10T10:53:32;100303.38;;;17.39;35.33
26487;BME280;14425;56.136;40.360;2023-06-10T10:58:27;100283.56;;;18.63;34.33
26487;BME280;14425;56.136;40.360;2023-06-10T11:00:52;100293.13;;;18.62;34.12
26487;BME280;14425;56.136;40.360;2023-06-10T11:03:18;100304.88;;;18.28;33.83
26487;BME280;14425;56.136;40.360;2023-06-10T11:05:48;100293.75;;;18.43;35.13
26487;BME280;14425;56.136;40.360;2023-06-10T11:11:17;100283.53;;;19.35;33.93
26487;BME280;14425;56.136;40.360;2023-06-10T11:16:41;100288.50;;;20.02;33.45
26487;BME280;14425;56.136;40.360;2023-06-10T11:19:07;100287.19;;;19.55;32.54
26487;BME280;14425;56.136;40.360;2023-06-10T11:21:56;100276.41;;;17.87;33.21
26487;BME280;14425;56.136;40.360;2023-06-10T11:24:22;100297.88;;;18.27;32.95
26487;BME280;14425;56.136;40.360;2023-06-10T11:26:48;100302.00;;;17.61;34.18
26487;BME280;14425;56.136;40.360;2023-06-10T11:29:14;100299.09;;;17.92;33.89
26487;BME280;14425;56.136;40.360;2023-06-10T11:31:42;100301.81;;;18.00;32.97
26487;BME280;14425;56.136;40.360;2023-06-10T11:34:08;100307.69;;;17.38;34.22
26487;BME280;14425;56.136;40.360;2023-06-10T11:36:38;100312.16;;;17.44;35.24
26487;BME280;14425;56.136;40.360;2023-06-10T11:39:06;100308.66;;;17.92;34.40
26487;BME280;14425;56.136;40.360;2023-06-10T11:41:33;100309.50;;;18.49;35.18
26487;BME280;14425;56.136;40.360;2023-06-10T11:44:04;100311.75;;;18.23;33.90
26487;BME280;14425;56.136;40.360;2023-06-10T11:46:30;100318.53;;;17.61;34.96
26487;BME280;14425;56.136;40.360;2023-06-10T11:48:57;100317.13;;;17.31;35.77
26487;BME280;14425;56.136;40.360;2023-06-10T11:51:31;100314.28;;;17.66;34.33
26487;BME280;14425;56.136;40.360;2023-06-10T11:53:57;100313.63;;;18.99;32.71
26487;BME280;14425;56.136;40.360;2023-06-10T11:56:24;100308.19;;;19.62;31.73
26487;BME280;14425;56.136;40.360;2023-06-10T11:58:59;100302.97;;;19.63;31.35
26487;BME280;14425;56.136;40.360;2023-06-10T12:01:32;100300.06;;;20.40;30.63
26487;BME280;14425;56.136;40.360;2023-06-10T12:04:04;100306.97;;;20.22;30.69
26487;BME280;14425;56.136;40.360;2023-06-10T12:06:42;100308.66;;;20.20;30.07
26487;BME280;14425;56.136;40.360;2023-06-10T12:09:29;100298.03;;;19.92;28.46
26487;BME280;14425;56.136;40.360;2023-06-10T12:12:01;100301.16;;;19.54;29.34
26487;BME280;14425;56.136;40.360;2023-06-10T12:14:59;100317.50;;;18.00;30.30
26487;BME280;14425;56.136;40.360;2023-06-10T12:20:00;100317.69;;;18.75;29.78
26487;BME280;14425;56.136;40.360;2023-06-10T12:22:26;100297.94;;;19.83;28.22
26487;BME280;14425;56.136;40.360;2023-06-10T12:24:59;100296.38;;;20.04;29.02
26487;BME280;14425;56.136;40.360;2023-06-10T12:27:25;100316.78;;;18.73;29.66
26487;BME280;14425;56.136;40.360;2023-06-10T12:29:51;100312.97;;;17.90;31.01
26487;BME280;14425;56.136;40.360;2023-06-10T12:32:19;100321.97;;;17.11;33.83
26487;BME280;14425;56.136;40.360;2023-06-10T12:34:45;100318.97;;;16.91;35.64
26487;BME280;14425;56.136;40.360;2023-06-10T12:37:12;100322.81;;;17.10;35.68
26487;BME280;14425;56.136;40.360;2023-06-10T12:39:42;100311.50;;;18.07;34.47
26487;BME280;14425;56.136;40.360;2023-06-10T12:42:09;100310.88;;;18.87;33.20
26487;BME280;14425;56.136;40.360;2023-06-10T12:44:38;100306.47;;;19.67;31.73
26487;BME280;14425;56.136;40.360;2023-06-10T12:47:11;100303.31;;;20.02;30.38
26487;BME280;14425;56.136;40.360;2023-06-10T12:49:40;100297.38;;;20.27;30.75
26487;BME280;14425;56.136;40.360;2023-06-10T12:52:06;100305.88;;;19.05;31.45
26487;BME280;14425;56.136;40.360;2023-06-10T12:54:32;100311.78;;;18.90;31.94
26487;BME280;14425;56.136;40.360;2023-06-10T12:56:58;100301.19;;;18.78;31.65
26487;BME280;14425;56.136;40.360;2023-06-10T12:59:24;100302.03;;;19.55;31.09